Aviation Digital Data Service (ADDS)

Output produced by TAFs form (0145 UTC 22 November 2017)
found at http://www.aviationweather.gov/adds/tafs/
 
METAR text: RJTF 220100Z 34005KT 310V030 9999 FEW030 SCT060 BKN/// 07/M02 Q1024
Conditions at: RJTF (CHOFU AIRPORT , JP) observed 0100 UTC 22 November 2017
Temperature: 7.0°C (45°F)
Dewpoint: -2.0°C (28°F) [RH = 53%]
Pressure (altimeter): 30.24 inches Hg (1024.0 mb)
Winds: from the NNW (340 degrees) at 6 MPH (5 knots; 2.6 m/s)
Visibility: 6 or more miles (10+ km)
Ceiling: at least 12,000 feet AGL
Clouds: few clouds at 3000 feet AGL
scattered clouds at 6000 feet AGL
Weather: no significant weather observed at this time